Time;durP1;ratioP1;P1;durP2;ratioP2;P2;SDS_P1;SDS_P2;PMS_P1;PMS_P2;Temp;Humidity;BMP_temperature;BMP_pressure;BME280_temperature;BME280_humidity;BME280_pressure;Samples;Min_cycle;Max_cycle;Signal;HPM_P1;HPM_P2
2022/03/11 00:00:09;;;;;;;5.80;5.30;;;7.10;18.00;;;;;;10307222;28;20242;-71
2022/03/11 00:05:12;;;;;;;5.97;5.37;;;7.00;17.90;;;;;;10309665;28;20262;-69
2022/03/11 00:10:16;;;;;;;6.07;5.47;;;7.10;17.90;;;;;;10305653;28;20257;-69
2022/03/11 00:15:20;;;;;;;4.90;4.40;;;7.00;17.50;;;;;;10314377;28;20771;-69
2022/03/11 00:20:24;;;;;;;5.10;4.60;;;7.00;17.50;;;;;;10308312;28;20246;-69
2022/03/11 00:25:29;;;;;;;4.73;4.17;;;7.00;17.40;;;;;;10306206;28;20659;-69
2022/03/11 00:30:34;;;;;;;5.10;4.60;;;7.00;17.40;;;;;;10308818;28;20231;-71
2022/03/11 00:35:37;;;;;;;4.33;3.93;;;6.90;17.40;;;;;;10303503;28;20236;-72
2022/03/11 00:40:42;;;;;;;4.37;3.97;;;6.90;17.30;;;;;;10307044;28;20561;-72
2022/03/11 00:45:46;;;;;;;5.27;4.40;;;6.80;17.30;;;;;;10305240;28;20611;-70
2022/03/11 00:50:50;;;;;;;5.10;4.60;;;6.80;17.30;;;;;;10306904;28;20236;-69
2022/03/11 00:55:53;;;;;;;6.30;4.27;;;6.80;17.30;;;;;;10302341;28;20239;-69
2022/03/11 01:00:57;;;;;;;5.10;4.60;;;6.70;17.20;;;;;;10304438;28;20223;-69
2022/03/11 01:06:01;;;;;;;5.50;4.20;;;6.60;17.20;;;;;;10303054;28;20321;-71
2022/03/11 01:11:05;;;;;;;8.07;4.40;;;6.50;17.10;;;;;;10300910;28;20235;-71
2022/03/11 01:16:10;;;;;;;4.83;4.30;;;6.50;17.10;;;;;;10299829;28;20237;-71
2022/03/11 01:21:13;;;;;;;5.10;4.50;;;6.50;17.10;;;;;;10305617;28;20231;-71
2022/03/11 01:26:16;;;;;;;6.43;4.23;;;6.40;17.00;;;;;;10297244;28;20266;-69
2022/03/11 01:31:21;;;;;;;3.80;3.50;;;6.40;17.00;;;;;;10305838;28;20235;-69
2022/03/11 01:36:24;;;;;;;6.10;4.10;;;6.30;16.90;;;;;;10306168;28;20235;-72
2022/03/11 01:41:28;;;;;;;5.40;4.90;;;6.30;16.90;;;;;;10299478;28;20253;-69
2022/03/11 01:46:32;;;;;;;4.63;4.20;;;6.20;16.90;;;;;;10304315;28;20234;-69
2022/03/11 01:51:38;;;;;;;4.17;3.77;;;6.20;16.90;;;;;;10302183;28;20246;-69
2022/03/11 01:56:42;;;;;;;5.97;3.97;;;6.20;16.90;;;;;;10303538;28;20320;-69
2022/03/11 02:01:47;;;;;;;4.87;4.17;;;6.10;16.80;;;;;;10304454;28;20223;-70
2022/03/11 02:06:51;;;;;;;4.43;4.00;;;6.10;16.80;;;;;;10306509;28;20245;-70
2022/03/11 02:11:54;;;;;;;4.83;4.20;;;6.10;17.10;;;;;;10305345;28;20664;-70
2022/03/11 02:16:58;;;;;;;6.43;4.27;;;6.10;16.80;;;;;;10304072;28;20239;-70
2022/03/11 02:22:04;;;;;;;5.03;4.37;;;6.00;16.90;;;;;;10304608;28;20748;-70
2022/03/11 02:27:09;;;;;;;5.00;4.50;;;6.00;17.10;;;;;;10300068;28;20237;-70
2022/03/11 02:32:12;;;;;;;5.07;4.30;;;5.90;17.10;;;;;;10299547;28;20234;-70
2022/03/11 02:37:15;;;;;;;5.27;4.33;;;5.80;17.00;;;;;;10303145;28;20242;-70
2022/03/11 02:42:20;;;;;;;5.83;4.57;;;5.80;17.10;;;;;;10298516;28;20220;-69
2022/03/11 02:47:23;;;;;;;5.83;4.53;;;5.70;17.00;;;;;;10304180;28;20726;-68
2022/03/11 02:52:28;;;;;;;4.97;4.47;;;5.60;17.10;;;;;;10295260;28;20716;-69
2022/03/11 02:57:33;;;;;;;4.77;4.27;;;5.50;17.20;;;;;;10302919;28;20223;-70
2022/03/11 03:02:36;;;;;;;4.80;4.27;;;5.50;17.30;;;;;;10298244;28;20722;-70
2022/03/11 03:07:39;;;;;;;4.67;4.17;;;5.40;17.40;;;;;;10300060;28;20872;-70
2022/03/11 03:12:44;;;;;;;6.57;4.60;;;5.40;17.40;;;;;;10296007;28;20619;-70
2022/03/11 03:17:47;;;;;;;4.90;4.33;;;5.30;17.40;;;;;;10302244;28;20239;-70
2022/03/11 03:22:50;;;;;;;5.20;4.07;;;5.30;17.40;;;;;;10304107;28;20258;-71
2022/03/11 03:27:55;;;;;;;5.03;4.50;;;5.20;17.40;;;;;;10300204;28;20250;-70
2022/03/11 03:32:58;;;;;;;5.17;4.67;;;5.20;17.60;;;;;;10301802;28;20703;-70
2022/03/11 03:38:01;;;;;;;7.53;4.40;;;5.20;17.60;;;;;;10298788;28;20228;-72
2022/03/11 03:43:06;;;;;;;5.60;5.10;;;5.10;17.70;;;;;;10296042;28;20223;-71
2022/03/11 03:48:09;;;;;;;5.50;4.53;;;5.10;17.70;;;;;;10294546;28;20235;-72
2022/03/11 03:53:12;;;;;;;5.50;4.83;;;5.10;17.80;;;;;;10297570;28;20223;-70
2022/03/11 03:58:17;;;;;;;5.43;4.77;;;5.00;17.70;;;;;;10297476;28;20238;-69
2022/03/11 04:03:20;;;;;;;6.73;4.90;;;4.90;17.70;;;;;;10298444;28;20241;-70
2022/03/11 04:08:23;;;;;;;5.20;4.67;;;4.90;17.80;;;;;;10296930;28;20235;-69
2022/03/11 04:13:28;;;;;;;6.07;5.47;;;4.90;17.80;;;;;;10299835;28;20235;-69
2022/03/11 04:18:32;;;;;;;5.43;4.50;;;4.80;17.80;;;;;;10299452;28;20227;-69
2022/03/11 04:23:36;;;;;;;6.40;4.73;;;4.80;17.80;;;;;;10297417;28;20226;-70
2022/03/11 04:28:40;;;;;;;8.83;5.23;;;4.80;18.00;;;;;;10299306;28;20236;-71
2022/03/11 04:33:44;;;;;;;7.03;4.70;;;4.70;18.10;;;;;;10298583;28;20235;-69
2022/03/11 04:38:47;;;;;;;5.73;4.80;;;4.70;18.00;;;;;;10300945;28;20236;-70
2022/03/11 04:43:51;;;;;;;8.27;5.43;;;4.60;18.10;;;;;;10307265;28;20232;-69
2022/03/11 04:48:54;;;;;;;6.23;5.23;;;4.60;18.20;;;;;;10304045;28;20286;-70
2022/03/11 04:53:59;;;;;;;5.80;5.20;;;4.60;18.20;;;;;;10307692;28;20579;-70
2022/03/11 04:59:03;;;;;;;5.20;4.70;;;4.60;18.30;;;;;;10303603;28;20235;-69
2022/03/11 05:04:06;;;;;;;6.33;5.07;;;4.60;18.30;;;;;;10310745;28;20246;-71
2022/03/11 05:09:09;;;;;;;5.30;4.77;;;4.60;18.30;;;;;;10304246;28;20242;-71
2022/03/11 05:14:14;;;;;;;4.97;4.33;;;4.50;18.30;;;;;;10304361;28;20231;-72
2022/03/11 05:19:17;;;;;;;5.30;4.47;;;4.60;18.40;;;;;;10303493;28;20234;-69
2022/03/11 05:24:20;;;;;;;6.20;5.40;;;4.40;18.40;;;;;;10302551;28;20229;-69
2022/03/11 05:29:25;;;;;;;6.00;5.10;;;4.40;18.40;;;;;;10301823;28;20231;-70
2022/03/11 05:34:28;;;;;;;9.53;4.90;;;4.40;18.50;;;;;;10301375;28;20238;-71
2022/03/11 05:39:31;;;;;;;7.33;5.13;;;4.30;18.40;;;;;;10300877;28;20704;-71
2022/03/11 05:44:36;;;;;;;5.73;5.13;;;4.30;18.50;;;;;;10303660;28;20227;-71
2022/03/11 05:49:39;;;;;;;5.03;4.43;;;4.20;18.50;;;;;;10302555;28;20246;-71
2022/03/11 05:54:42;;;;;;;6.27;5.33;;;4.20;18.60;;;;;;10303762;28;20243;-71
2022/03/11 05:59:47;;;;;;;5.73;4.97;;;4.20;18.60;;;;;;10301478;28;20246;-72
2022/03/11 06:04:50;;;;;;;7.80;5.13;;;4.20;18.70;;;;;;10300643;28;20521;-70
2022/03/11 06:09:53;;;;;;;5.80;5.20;;;4.30;18.80;;;;;;10304626;28;20219;-70
2022/03/11 06:14:58;;;;;;;7.90;5.83;;;4.20;18.80;;;;;;10305293;28;20262;-70
2022/03/11 06:20:01;;;;;;;5.63;5.07;;;4.20;19.00;;;;;;10304280;28;20602;-71
2022/03/11 06:25:06;;;;;;;5.87;5.27;;;4.20;19.90;;;;;;10301552;28;20693;-71
2022/03/11 06:30:11;;;;;;;5.60;5.07;;;4.20;19.50;;;;;;10301780;28;20614;-71
2022/03/11 06:35:16;;;;;;;6.87;5.33;;;4.20;19.40;;;;;;10304012;28;20231;-70
2022/03/11 06:40:19;;;;;;;6.87;5.67;;;4.20;19.10;;;;;;10298320;28;20235;-70
2022/03/11 06:45:24;;;;;;;7.50;5.37;;;4.20;19.30;;;;;;10299019;28;20606;-72
2022/03/11 06:50:28;;;;;;;7.10;5.57;;;4.20;19.40;;;;;;10299884;28;20251;-71
2022/03/11 06:55:31;;;;;;;7.03;6.03;;;4.20;19.40;;;;;;10299020;28;20742;-71
2022/03/11 07:00:35;;;;;;;7.53;5.90;;;4.30;19.50;;;;;;10298111;28;20748;-71
2022/03/11 07:05:39;;;;;;;8.33;6.47;;;4.30;19.60;;;;;;10302044;28;20235;-71
2022/03/11 07:10:42;;;;;;;8.70;6.33;;;4.30;19.70;;;;;;10297576;28;20239;-70
2022/03/11 07:15:47;;;;;;;6.87;6.07;;;4.30;19.70;;;;;;10299938;28;20238;-70
2022/03/11 07:20:50;;;;;;;7.23;6.50;;;4.40;19.90;;;;;;10298269;28;20309;-71
2022/03/11 07:26:02;;;;;;;8.23;7.27;;;4.50;19.90;;;;;;10302325;28;20224;-71
2022/03/11 07:31:07;;;;;;;9.63;6.70;;;4.60;19.90;;;;;;10304793;28;20224;-71
2022/03/11 07:36:10;;;;;;;7.87;7.07;;;4.70;20.10;;;;;;10296583;28;20246;-70
2022/03/11 07:41:14;;;;;;;9.40;7.23;;;4.80;20.20;;;;;;10294805;28;20562;-70
2022/03/11 07:46:20;;;;;;;9.03;7.60;;;4.90;20.10;;;;;;10296362;28;20322;-70
2022/03/11 07:51:25;;;;;;;8.97;7.33;;;5.10;20.30;;;;;;10284122;28;20707;-70
2022/03/11 07:56:28;;;;;;;8.67;7.17;;;5.30;20.30;;;;;;10289748;28;20745;-70
2022/03/11 08:01:33;;;;;;;9.10;7.80;;;5.50;20.30;;;;;;10290231;28;20297;-69
2022/03/11 08:06:37;;;;;;;8.83;7.80;;;5.70;20.50;;;;;;10290712;28;20405;-72
2022/03/11 08:11:40;;;;;;;8.87;7.97;;;5.90;20.30;;;;;;10296041;28;20233;-73
2022/03/11 08:16:45;;;;;;;9.83;8.10;;;6.20;20.40;;;;;;10304315;28;20238;-72
2022/03/11 08:21:48;;;;;;;9.07;7.97;;;6.40;20.40;;;;;;10306054;28;20282;-72
2022/03/11 08:26:52;;;;;;;10.90;9.00;;;6.60;20.20;;;;;;10302692;28;20719;-72
2022/03/11 08:31:57;;;;;;;10.87;8.93;;;6.80;20.00;;;;;;10307146;28;20232;-72
2022/03/11 08:37:06;;;;;;;11.47;8.33;;;7.00;20.00;;;;;;10309009;28;20222;-72
2022/03/11 08:42:09;;;;;;;10.07;8.20;;;7.30;20.00;;;;;;10307739;28;20230;-72
2022/03/11 08:47:14;;;;;;;13.10;8.63;;;7.50;19.90;;;;;;10307970;28;20227;-72
2022/03/11 08:52:17;;;;;;;10.33;8.87;;;7.70;19.60;;;;;;10307689;28;20700;-72
2022/03/11 08:57:20;;;;;;;9.80;8.63;;;7.80;19.40;;;;;;10300847;28;20239;-72
2022/03/11 09:02:25;;;;;;;10.17;9.03;;;8.00;19.30;;;;;;10306845;28;20231;-72
2022/03/11 09:07:29;;;;;;;10.27;9.13;;;8.20;19.20;;;;;;10346302;22;20229;-79
2022/03/11 09:12:32;;;;;;;9.23;8.27;;;8.30;19.10;;;;;;10441832;28;20724;-79
2022/03/11 09:17:37;;;;;;;9.27;8.37;;;8.50;19.10;;;;;;10443111;28;20356;-78
2022/03/11 09:22:42;;;;;;;10.90;9.27;;;8.80;18.50;;;;;;10443347;28;20745;-79
2022/03/11 09:27:46;;;;;;;9.87;8.80;;;9.00;18.70;;;;;;10446468;28;20225;-79
2022/03/11 09:32:51;;;;;;;11.57;8.97;;;9.10;18.70;;;;;;10446648;28;20599;-79
2022/03/11 09:37:54;;;;;;;9.53;8.53;;;9.20;18.40;;;;;;10448474;28;20221;-78
2022/03/11 09:42:58;;;;;;;8.87;7.97;;;9.30;18.80;;;;;;10444114;28;20244;-78
2022/03/11 09:48:06;;;;;;;9.53;8.47;;;9.40;18.30;;;;;;10441500;28;20745;-78
2022/03/11 09:53:09;;;;;;;11.13;8.70;;;9.60;18.50;;;;;;10444770;28;20316;-77
2022/03/11 09:58:13;;;;;;;9.70;7.93;;;9.80;18.40;;;;;;10434655;28;20276;-77
2022/03/11 10:03:18;;;;;;;9.53;8.50;;;10.00;17.40;;;;;;10438609;28;20267;-77
2022/03/11 10:08:32;;;;;;;10.37;8.60;;;10.20;17.00;;;;;;10445961;28;20255;-76
2022/03/11 10:13:38;;;;;;;8.83;7.90;;;10.20;15.70;;;;;;10442808;28;20259;-77
2022/03/11 10:18:53;;;;;;;9.77;8.57;;;10.30;16.80;;;;;;10443926;28;20217;-76
2022/03/11 10:23:57;;;;;;;10.67;7.43;;;10.40;16.60;;;;;;10441707;28;20847;-76
2022/03/11 10:29:00;;;;;;;9.83;8.27;;;10.60;17.20;;;;;;10446554;28;20225;-77
2022/03/11 10:34:18;;;;;;;8.67;7.87;;;10.80;16.70;;;;;;10439959;28;20605;-76
2022/03/11 10:39:25;;;;;;;9.10;8.20;;;10.90;16.30;;;;;;10437413;28;20692;-76
2022/03/11 10:44:37;;;;;;;10.63;8.13;;;11.00;16.50;;;;;;10436169;28;20319;-76
2022/03/11 10:49:49;;;;;;;9.70;8.70;;;11.20;16.50;;;;;;10441514;28;20225;-77
2022/03/11 10:54:52;;;;;;;11.13;8.47;;;11.20;15.30;;;;;;10445586;28;20709;-76
2022/03/11 10:59:55;;;;;;;10.97;8.60;;;11.30;16.30;;;;;;10442566;28;20727;-76
2022/03/11 11:05:00;;;;;;;12.30;8.60;;;11.40;15.70;;;;;;10443073;28;20227;-76
2022/03/11 11:10:04;;;;;;;9.77;8.77;;;11.40;16.00;;;;;;10446973;28;22553;-76
2022/03/11 11:15:08;;;;;;;10.17;8.20;;;11.60;16.00;;;;;;10440463;28;20225;-76
2022/03/11 11:20:20;;;;;;;12.27;9.00;;;11.70;15.60;;;;;;10439372;28;20300;-76
2022/03/11 11:25:24;;;;;;;9.33;8.40;;;11.70;14.80;;;;;;10430863;28;20268;-76
2022/03/11 11:30:27;;;;;;;9.50;8.50;;;11.80;16.00;;;;;;10447773;28;20892;-76
2022/03/11 11:35:34;;;;;;;10.10;8.60;;;11.90;15.80;;;;;;10441578;28;20232;-75
2022/03/11 11:40:40;;;;;;;8.67;7.87;;;12.00;15.30;;;;;;10437198;28;20338;-77
2022/03/11 11:45:44;;;;;;;9.53;8.50;;;12.00;14.80;;;;;;10446982;28;20232;-77
2022/03/11 11:50:50;;;;;;;8.97;8.07;;;12.10;15.60;;;;;;10447114;28;20240;-77
2022/03/11 11:55:54;;;;;;;9.07;8.17;;;12.20;15.50;;;;;;10450097;28;20228;-77
2022/03/11 12:00:58;;;;;;;8.73;7.83;;;12.20;15.20;;;;;;10450762;28;20766;-77
2022/03/11 12:06:03;;;;;;;8.73;7.80;;;12.30;15.20;;;;;;10454348;28;20231;-76
2022/03/11 12:11:07;;;;;;;9.03;8.13;;;12.50;15.20;;;;;;10441085;28;20903;-76
2022/03/11 12:16:20;;;;;;;10.97;8.40;;;12.60;15.30;;;;;;10449190;28;20282;-75
2022/03/11 12:21:28;;;;;;;8.83;8.00;;;12.70;14.00;;;;;;10448410;28;20224;-75
2022/03/11 12:26:36;;;;;;;10.93;8.43;;;12.70;14.80;;;;;;10439787;28;20702;-73
2022/03/11 12:31:44;;;;;;;8.07;7.33;;;12.80;14.60;;;;;;10432590;28;21265;-75
2022/03/11 12:36:50;;;;;;;8.33;7.33;;;12.80;14.60;;;;;;10434186;28;20890;-75
2022/03/11 12:41:54;;;;;;;9.20;7.80;;;12.90;14.40;;;;;;10434740;28;20236;-75
2022/03/11 12:46:57;;;;;;;9.17;7.87;;;13.00;14.80;;;;;;10436596;28;20316;-77
2022/03/11 12:52:20;;;;;;;11.77;7.53;;;13.10;14.90;;;;;;10440525;28;20233;-77
2022/03/11 12:57:24;;;;;;;7.67;6.97;;;13.10;13.40;;;;;;10441378;28;20225;-77
2022/03/11 13:02:27;;;;;;;8.23;7.43;;;13.10;14.70;;;;;;10449301;28;20252;-77
2022/03/11 13:07:32;;;;;;;9.80;7.10;;;13.10;13.60;;;;;;10432061;28;20221;-77
2022/03/11 13:12:39;;;;;;;8.90;7.80;;;13.10;13.70;;;;;;10431806;28;20983;-77
2022/03/11 13:17:44;;;;;;;8.27;7.47;;;13.10;13.60;;;;;;10435496;28;20241;-77
2022/03/11 13:22:51;;;;;;;10.27;6.90;;;13.00;13.40;;;;;;10436005;28;20783;-77
2022/03/11 13:27:55;;;;;;;8.87;6.73;;;13.00;13.20;;;;;;10434053;28;20229;-77
2022/03/11 13:32:58;;;;;;;7.40;6.70;;;13.10;13.30;;;;;;10433563;28;20228;-77
2022/03/11 13:38:03;;;;;;;7.53;6.80;;;13.10;13.90;;;;;;10438380;28;20936;-76
2022/03/11 13:43:14;;;;;;;9.63;6.33;;;13.20;13.70;;;;;;10432568;28;20216;-77
2022/03/11 13:48:20;;;;;;;8.33;6.83;;;13.30;14.10;;;;;;10436696;28;20240;-78
2022/03/11 13:53:28;;;;;;;7.47;6.77;;;13.40;13.60;;;;;;10432425;28;20236;-77
2022/03/11 13:58:31;;;;;;;10.77;7.10;;;13.50;12.80;;;;;;10428927;28;20232;-77
2022/03/11 14:03:43;;;;;;;8.07;6.50;;;13.50;12.70;;;;;;10430156;28;20240;-77
2022/03/11 14:08:51;;;;;;;7.37;6.23;;;13.50;12.30;;;;;;10434166;28;20225;-77
2022/03/11 14:13:55;;;;;;;8.00;6.57;;;13.50;12.30;;;;;;10430781;28;20225;-77
2022/03/11 14:18:59;;;;;;;6.87;6.17;;;13.50;11.80;;;;;;10429280;28;20344;-77
2022/03/11 14:24:03;;;;;;;6.20;5.60;;;13.50;12.70;;;;;;10429905;28;21016;-77
2022/03/11 14:29:06;;;;;;;7.03;6.03;;;13.40;12.20;;;;;;10432340;28;20275;-77
2022/03/11 14:34:10;;;;;;;6.13;5.10;;;13.50;12.30;;;;;;10434654;28;20228;-77
2022/03/11 14:39:14;;;;;;;6.03;5.50;;;13.50;12.50;;;;;;10439696;28;20227;-77
2022/03/11 14:44:17;;;;;;;8.37;5.20;;;13.60;12.40;;;;;;10439569;28;20264;-78
2022/03/11 14:49:21;;;;;;;5.20;4.80;;;13.60;11.50;;;;;;10438753;28;20238;-77
2022/03/11 14:54:25;;;;;;;6.50;5.13;;;13.60;11.10;;;;;;10441389;28;20696;-77
2022/03/11 14:59:29;;;;;;;6.73;4.80;;;13.60;10.80;;;;;;10436450;28;20689;-77
2022/03/11 15:04:32;;;;;;;5.40;4.90;;;13.60;12.10;;;;;;10440801;28;20697;-77
2022/03/11 15:09:37;;;;;;;5.00;4.60;;;13.60;11.80;;;;;;10436697;28;20268;-77
2022/03/11 15:14:40;;;;;;;5.40;4.67;;;13.60;11.40;;;;;;10432920;28;20221;-77
2022/03/11 15:19:44;;;;;;;4.70;4.30;;;13.60;11.70;;;;;;10439214;28;20229;-78
2022/03/11 15:24:49;;;;;;;6.47;4.90;;;13.60;12.00;;;;;;10437217;28;20225;-77
2022/03/11 15:29:52;;;;;;;6.00;4.37;;;13.60;11.00;;;;;;10437876;28;20228;-78
2022/03/11 15:34:55;;;;;;;6.40;4.60;;;13.60;11.30;;;;;;10437737;28;21002;-78
2022/03/11 15:40:01;;;;;;;8.23;4.57;;;13.60;11.20;;;;;;10440434;28;20224;-78
2022/03/11 15:45:04;;;;;;;5.20;4.70;;;13.60;10.90;;;;;;10436030;28;20228;-78
2022/03/11 15:50:09;;;;;;;4.60;4.20;;;13.60;10.90;;;;;;10437210;28;20943;-78
2022/03/11 15:55:16;;;;;;;4.67;4.27;;;13.60;11.30;;;;;;10434614;28;21048;-78
2022/03/11 16:00:20;;;;;;;4.40;3.90;;;13.60;11.30;;;;;;10445268;28;20312;-78
2022/03/11 16:05:24;;;;;;;4.80;4.30;;;13.50;11.30;;;;;;10441821;28;20229;-78
2022/03/11 16:10:29;;;;;;;4.67;4.20;;;13.50;10.90;;;;;;10443530;28;20962;-78
2022/03/11 16:15:32;;;;;;;5.37;4.43;;;13.40;10.70;;;;;;10442421;28;20225;-77
2022/03/11 16:20:36;;;;;;;5.10;4.50;;;13.40;11.10;;;;;;10446702;28;20256;-78
2022/03/11 16:25:40;;;;;;;7.20;4.67;;;13.30;10.60;;;;;;10447982;28;20243;-78
2022/03/11 16:30:58;;;;;;;6.33;4.77;;;13.20;10.60;;;;;;10450580;28;20283;-79
2022/03/11 16:36:21;;;;;;;5.23;4.73;;;13.10;11.20;;;;;;10456193;28;20225;-79
2022/03/11 16:41:26;;;;;;;5.20;4.77;;;13.00;11.00;;;;;;10459143;28;20236;-79
2022/03/11 16:46:30;;;;;;;5.57;4.80;;;13.00;11.20;;;;;;10450921;28;20228;-78
2022/03/11 16:51:33;;;;;;;6.00;5.33;;;12.90;11.10;;;;;;10451574;28;20282;-77
2022/03/11 16:56:39;;;;;;;5.30;4.80;;;12.80;11.10;;;;;;10445317;28;20235;-77
2022/03/11 17:01:42;;;;;;;5.40;4.90;;;12.70;10.80;;;;;;10445579;28;20229;-78
2022/03/11 17:06:45;;;;;;;5.70;5.20;;;12.60;11.30;;;;;;10435478;28;20228;-77
2022/03/11 17:11:50;;;;;;;5.13;4.73;;;12.50;11.00;;;;;;10442422;28;20240;-77
2022/03/11 17:16:55;;;;;;;5.07;4.67;;;12.40;11.20;;;;;;10441490;28;20898;-77
2022/03/11 17:21:58;;;;;;;6.30;5.20;;;12.30;11.40;;;;;;10442014;28;20233;-78
2022/03/11 17:27:03;;;;;;;7.30;6.57;;;12.20;11.30;;;;;;10435718;28;20231;-77
2022/03/11 17:32:08;;;;;;;6.07;5.47;;;12.00;11.30;;;;;;10442611;28;20705;-78
2022/03/11 17:37:11;;;;;;;6.13;5.53;;;11.80;11.20;;;;;;10440421;28;20224;-77
2022/03/11 17:42:16;;;;;;;6.13;5.53;;;11.70;11.70;;;;;;10440702;28;20264;-77
2022/03/11 17:47:19;;;;;;;5.90;5.40;;;11.60;11.70;;;;;;10440228;28;20224;-77
2022/03/11 17:52:23;;;;;;;5.60;5.10;;;11.60;11.80;;;;;;10454830;28;20261;-77
2022/03/11 17:57:27;;;;;;;6.33;5.37;;;11.50;11.60;;;;;;10450655;28;20233;-77
2022/03/11 18:02:31;;;;;;;5.33;4.83;;;11.30;11.50;;;;;;10445503;28;20229;-78
2022/03/11 18:07:34;;;;;;;6.20;5.10;;;11.20;11.80;;;;;;10442085;28;20969;-77
2022/03/11 18:12:39;;;;;;;6.13;5.53;;;11.10;11.80;;;;;;10438419;28;20743;-77
2022/03/11 18:17:42;;;;;;;5.73;5.03;;;11.10;11.90;;;;;;10442742;28;20241;-77
2022/03/11 18:22:46;;;;;;;5.33;4.83;;;11.00;11.90;;;;;;10443047;28;20926;-77
2022/03/11 18:27:51;;;;;;;5.77;5.00;;;11.00;11.90;;;;;;10440710;28;20233;-79
2022/03/11 18:32:54;;;;;;;5.60;5.10;;;11.00;11.80;;;;;;10434142;28;20251;-78
2022/03/11 18:37:57;;;;;;;5.93;5.33;;;11.00;12.00;;;;;;10436376;28;20229;-78
2022/03/11 18:43:02;;;;;;;5.60;4.97;;;10.80;11.70;;;;;;10432828;28;20237;-79
2022/03/11 18:48:06;;;;;;;6.77;5.60;;;10.70;11.60;;;;;;10434439;28;20221;-78
2022/03/11 18:53:09;;;;;;;5.57;5.00;;;10.50;11.70;;;;;;10438718;28;20232;-78
2022/03/11 18:58:14;;;;;;;5.43;4.80;;;10.30;11.60;;;;;;10437210;28;20225;-78
2022/03/11 19:03:17;;;;;;;5.60;5.10;;;10.20;11.70;;;;;;10438161;28;20228;-78
2022/03/11 19:08:20;;;;;;;8.07;5.30;;;10.20;11.80;;;;;;10442293;28;20285;-78
2022/03/11 19:13:25;;;;;;;5.77;4.37;;;10.10;11.80;;;;;;10445710;28;20233;-78
2022/03/11 19:18:28;;;;;;;5.57;4.23;;;10.10;11.70;;;;;;10445989;28;20311;-78
2022/03/11 19:23:32;;;;;;;6.03;4.40;;;10.00;11.80;;;;;;10446233;28;20227;-77
2022/03/11 19:28:37;;;;;;;5.47;4.60;;;9.90;12.60;;;;;;10444113;28;20226;-79
2022/03/11 19:33:45;;;;;;;4.40;4.00;;;9.90;12.60;;;;;;10442744;28;20237;-77
2022/03/11 19:38:48;;;;;;;6.43;4.60;;;9.80;12.50;;;;;;10442576;28;20231;-77
2022/03/11 19:43:54;;;;;;;5.47;4.80;;;9.80;12.60;;;;;;10438572;28;20239;-75
2022/03/11 19:48:57;;;;;;;6.77;5.70;;;9.70;12.40;;;;;;10425248;28;20221;-75
2022/03/11 19:54:01;;;;;;;6.13;4.60;;;9.70;12.60;;;;;;10425500;28;21185;-77
2022/03/11 19:59:08;;;;;;;5.33;4.80;;;9.60;12.70;;;;;;10427317;28;20872;-77
2022/03/11 20:04:11;;;;;;;6.33;4.80;;;9.60;12.50;;;;;;10428309;28;20722;-76
2022/03/11 20:09:15;;;;;;;6.53;5.40;;;9.50;12.60;;;;;;10434170;28;20311;-75
2022/03/11 20:14:20;;;;;;;5.57;4.80;;;9.40;12.60;;;;;;10433761;28;21017;-74
2022/03/11 20:19:24;;;;;;;5.77;4.33;;;9.30;12.70;;;;;;10432012;28;20230;-79
2022/03/11 20:24:28;;;;;;;6.57;4.70;;;9.20;12.60;;;;;;10439022;28;20723;-75
2022/03/11 20:29:32;;;;;;;5.70;4.90;;;9.10;12.70;;;;;;10435807;28;20743;-76
2022/03/11 20:34:36;;;;;;;4.93;4.27;;;9.10;12.70;;;;;;10431997;28;20257;-76
2022/03/11 20:39:40;;;;;;;5.30;4.80;;;9.10;12.80;;;;;;10432926;28;20240;-78
2022/03/11 20:44:44;;;;;;;4.50;4.10;;;9.00;12.80;;;;;;10431131;28;20225;-77
2022/03/11 20:49:54;;;;;;;7.03;4.87;;;9.00;12.90;;;;;;10438943;28;20225;-78
2022/03/11 20:54:57;;;;;;;4.80;4.30;;;9.00;12.90;;;;;;10452575;28;21030;-79
2022/03/11 21:00:03;;;;;;;6.63;4.07;;;8.90;12.90;;;;;;10435414;28;20243;-81
2022/03/11 21:05:27;;;;;;;5.70;5.20;;;8.80;13.00;;;;;;10441335;28;20232;-78
2022/03/11 21:10:31;;;;;;;5.70;4.47;;;8.80;12.90;;;;;;10437426;28;20247;-78
2022/03/11 21:15:36;;;;;;;5.00;4.50;;;8.80;12.70;;;;;;10442150;28;20225;-79
2022/03/11 21:20:45;;;;;;;5.50;5.00;;;8.70;12.90;;;;;;10433423;28;20323;-77
2022/03/11 21:25:49;;;;;;;4.63;4.10;;;8.50;12.70;;;;;;10438578;28;20231;-77
2022/03/11 21:30:53;;;;;;;4.33;3.93;;;8.40;13.00;;;;;;10438765;28;20244;-77
2022/03/11 21:35:57;;;;;;;4.97;4.40;;;8.40;13.10;;;;;;10437161;28;20244;-78
2022/03/11 21:41:21;;;;;;;4.47;4.07;;;8.30;13.10;;;;;;10433974;28;20242;-78
2022/03/11 21:46:26;;;;;;;4.90;4.17;;;8.30;12.90;;;;;;10439953;28;20237;-79
2022/03/11 21:51:30;;;;;;;4.27;3.83;;;8.20;13.00;;;;;;10436961;28;20221;-77
2022/03/11 21:56:33;;;;;;;4.63;4.23;;;8.10;13.10;;;;;;10432917;28;20229;-77
2022/03/11 22:32:24;;;;;;;4.70;4.23;;;7.50;13.10;;;;;;11481749;22;20226;-78
2022/03/11 22:37:28;;;;;;;6.60;4.57;;;7.50;13.10;;;;;;10392253;28;20229;-78
2022/03/11 22:42:31;;;;;;;5.03;4.23;;;7.40;13.10;;;;;;10382021;28;20238;-78
2022/03/11 22:47:37;;;;;;;4.57;4.17;;;7.40;13.10;;;;;;10391040;28;20525;-78
2022/03/11 22:52:40;;;;;;;4.03;3.67;;;7.40;13.20;;;;;;10390499;28;20312;-77
2022/03/11 22:57:46;;;;;;;4.90;4.40;;;7.30;13.20;;;;;;10390991;28;20238;-78
2022/03/11 23:03:00;;;;;;;6.13;4.07;;;7.30;13.20;;;;;;10395696;28;20342;-77
2022/03/11 23:13:28;;;;;;;5.73;3.80;;;7.20;13.50;;;;;;10382380;28;20233;-77
2022/03/11 23:18:32;;;;;;;3.87;3.57;;;7.20;13.50;;;;;;10390915;28;20240;-77
2022/03/11 23:23:36;;;;;;;4.20;3.83;;;7.20;13.30;;;;;;10385790;28;20229;-78
2022/03/11 23:28:39;;;;;;;4.40;4.00;;;7.20;13.50;;;;;;10390439;28;20240;-78
2022/03/11 23:33:49;;;;;;;4.43;4.03;;;7.10;13.50;;;;;;10388981;28;20237;-78
2022/03/11 23:38:53;;;;;;;4.50;4.10;;;7.00;13.70;;;;;;10394638;28;20233;-78
2022/03/11 23:43:56;;;;;;;4.33;3.67;;;7.00;13.60;;;;;;10383397;28;20248;-78
2022/03/11 23:49:03;;;;;;;4.77;4.27;;;6.90;13.60;;;;;;10390030;28;20229;-78
2022/03/11 23:54:06;;;;;;;4.30;3.90;;;6.90;13.60;;;;;;10381731;28;20225;-78
2022/03/11 23:59:10;;;;;;;4.50;4.00;;;6.80;13.60;;;;;;10381896;28;20249;-78
